Saint John, WA

12:09 AM PDT on August 29, 2014 (GMT -0700)
Winona-Silk Stocking Road | Change Station
CLOSE
Current Station
Personal Weather Station
Location: Endicott, WA
Elevation: 1483 ft
Nearby Weather Stations

Elev 1483 ft 46.94 °N, 117.80 °W | Updated 7 seconds ago

Clear
Clear
57.2 °F
Feels Like 57.2 °F
N
0.0
Wind Variable Wind from SE
Gusts 4.0 mph

Today
High -- | Low -- °F
--% Chance of Precip.
Yesterday
High -- | Low -- °F
Precip. -- in
6:05 AM 7:35 PM
Waxing Crescent, 12% visible
Pressure 29.97 in
Visibility 10.0 miles
Clouds Clear
Dew Point 41 °F
Humidity 54%
Rainfall 0.00 in
Snow Depth Not available.
UV 0 out of 12
Pollen 7.70 out of 12
Air Quality Not available.
Flu Activity Not available.
METAR KPUW 290653Z AUTO 00000KT 10SM CLR 14/05 A3001 RMK AO2 SLP148 T01440050

More Conditions Fewer Conditions

Pressure 29.97 in
Visibility 10.0 miles
Clouds Clear
Dew Point 41 °F
Humidity 54%
Rainfall 0.00 in
Snow Depth Not available.
UV 0 out of 12
Pollen 7.70 out of 12
Air Quality Not available.
Flu Activity Not available.
METAR KPUW 290653Z AUTO 00000KT 10SM CLR 14/05 A3001 RMK AO2 SLP148 T01440050

More Conditions Fewer Conditions

10-Day Weather Forecast

Almanac

Astronomy

Aug. 29, 2014 Rise Set
Actual Time 6:05 AM PDT 7:35 PM PDT
Civil Twilight 5:33 AM PDT 8:07 PM PDT
Nautical Twilight 4:55 AM PDT 8:45 PM PDT
Astronomical Twilight 4:13 AM PDT 9:27 PM PDT
Moon 10:17 AM PDT 9:16 PM PDT
Length of Visible Light 14h 33m
Length of Day
13h 29m
Tomorrow will be 3m 14s shorter.
Waxing Crescent, 12% of the Moon is Illuminated
Today
Waxing Crescent
Sep 2
First Quarter
Sep 8
Full
Sep 15
Last Quarter
Sep 24
New

Community

WunderPhotos

Upload Photos

1,748,197 photos uploaded!

Nearby

Snow Depth

Station Depth Elevation
Quartz Peak 1 in 4700 ft
Sourdough Gulch 0 in 4000 ft
Spruce Springs 0 in 5700 ft
Touchet 0 in 5530 ft
Moses Mountain 1 in 5300 ft

Earthquake Activity

City Distance Mag. Time & Date
No recent earthquake activity has been reported nearby.
Minimum magnitude displayed is 2.5.

Coastal Water Temperatures

Place Temperature
No Stations Reporting

Nearby Weather Stations